This is the latest recevied weather packets stored in our database for station/object N8ESG-13. If no packets are shown the sender has not sent any weather packets the latest 10 day(s).
| Time | Temp. | Humidity | Pressure | Rain* | Wind** | Luminosity | Snow |
|---|---|---|---|---|---|---|---|
| 1777469416 | 12.22° C | 92% | 1008.3 hPa | 0.25 mm | - | - | - |
| 1777462216 | 10° C | 93% | 1010.1 hPa | 0.25 mm | - | - | - |
| 1777455016 | 8.89° C | 93% | 1009.7 hPa | 0 mm | - | - | - |
| 1777449616 | 8.33° C | 93% | 1010.3 hPa | 0 mm | - | - | - |
| 1777429816 | 11.11° C | 89% | 1011.8 hPa | 0 mm | - | - | - |
| 1777399216 | 21.11° C | 66% | 1010.4 hPa | 0 mm | - | - | - |
| 1777384816 | 15.56° C | 84% | 1009.9 hPa | 0 mm | - | - | - |
| 1777383016 | 14.44° C | 86% | 1009.6 hPa | 0 mm | - | - | - |
| 1777366816 | 12.78° C | 92% | 1006 hPa | 0.51 mm | - | - | - |
| 1777365036 | 13.33° C | 91% | 1007 hPa | 0.51 mm | - | - | - |
| 1777356016 | 17.22° C | 56% | 1010.1 hPa | 0 mm | - | - | - |
| 1777354236 | 17.78° C | 52% | 1008.6 hPa | 0 mm | - | - | - |
| 1777336216 | 18.89° C | 49% | 1013.5 hPa | 0 mm | - | - | - |
| 1777309216 | 19.44° C | 49% | 1017.8 hPa | 0 mm | - | - | - |
| 1777287616 | 7.22° C | 86% | 1019.3 hPa | 0 mm | - | - | - |
| 1777285816 | 7.78° C | 84% | 1019.2 hPa | 0 mm | - | - | - |
| 1777269616 | 8.33° C | 85% | 1019 hPa | 0 mm | - | - | - |
| 1777262436 | 8.89° C | 80% | 1019.9 hPa | 0 mm | - | - | - |
| 1777244416 | 15° C | 70% | 1018.8 hPa | 0 mm | - | - | - |
| 1777239016 | 16.11° C | 68% | 1018.3 hPa | 0 mm | - | - | - |
| 1777221016 | 13.33° C | 77% | 1019 hPa | 0 mm | - | - | - |
| 1777204815 | 6.11° C | 93% | 1017.7 hPa | 0 mm | - | - | - |
| 1777201216 | 6.11° C | 93% | 1016.8 hPa | 0 mm | - | - | - |
| 1777195836 | 6.11° C | 93% | 1016 hPa | 0 mm | - | - | - |
| 1777194016 | 6.11° C | 93% | 1015.6 hPa | 0 mm | - | - | - |
* Rain latest hour (hover to see other rain measurements)
** Current wind speed in m/s (hover to see current wind gust speed)